»·PEaware :: N357MU KMHV-KSBD

N357MU :: KMHV-KSBD

FLIGHT INFORMATION

Flight Status: Arrived
Operator: Privately registered:
United States
More flights under this callsign
Pilot: Tim M. (20242)
Aircraft: CESSNA 172 SKYHAWK
(C172)
More flights by this aircraft type
Origin: KMHV Mojave
United States
Destination: KSBD San Bernardino Intl
United States
More flights between these airports :: More routes between these airports
Route: PMD
File this flight plan on PilotEdge
Remarks: VFR
Altitude:
(Current/Filed)
7,500ft
Speed:
(Current/Filed)
115kts
Departed: 03-Sep-18 02:16 PM
Arrived: 03-Sep-18 03:05 PM
Distance/Time
Traveled:
73nm/0:49
Distance/Time
To Go:
Arrived

Flight Plot

Page will automatically refresh every two minutes.


Map Options




Map Legend


Flown Route
Filed Route
Departure Airport
Arrival Airport
Navaid (VOR, NDB)
Fix

Horizontal Profiles

Position Reports

Time Latitude Longitude Heading Altitude Ground
Speed
03-Sep-18 14:12 35.057075 -118.154933 186 2757ft 0kts
03-Sep-18 14:13 35.057075 -118.154933 186 2757ft 0kts
03-Sep-18 14:14 35.057539 -118.155876 285 2760ft 8kts
03-Sep-18 14:15 35.058269 -118.157818 1 2765ft 0kts
03-Sep-18 14:16 35.058272 -118.157817 15 2765ft 0kts
03-Sep-18 14:17 35.058745 -118.157848 352 2766ft 3kts
03-Sep-18 14:18 35.059411 -118.147173 90 2944ft 53kts
03-Sep-18 14:19 35.045278 -118.138961 177 3371ft 83kts
03-Sep-18 14:20 35.021699 -118.139484 169 3870ft 92kts
03-Sep-18 14:21 34.994222 -118.136400 166 4375ft 103kts
03-Sep-18 14:22 34.965456 -118.131575 165 4875ft 105kts
03-Sep-18 14:23 34.936735 -118.126111 164 5373ft 104kts
03-Sep-18 14:24 34.908382 -118.120110 163 5869ft 103kts
03-Sep-18 14:25 34.880562 -118.114148 163 6364ft 102kts
03-Sep-18 14:26 34.853686 -118.108630 164 6843ft 102kts
03-Sep-18 14:27 34.826689 -118.103169 164 7324ft 102kts
03-Sep-18 14:28 34.797519 -118.097328 165 7542ft 114kts
03-Sep-18 14:29 34.765348 -118.091001 166 7541ft 118kts
03-Sep-18 14:30 34.732596 -118.084486 167 7541ft 120kts
03-Sep-18 14:31 34.699521 -118.077887 167 7541ft 121kts
03-Sep-18 14:32 34.666529 -118.071296 167 7540ft 121kts
03-Sep-18 14:33 34.633587 -118.063497 142 7539ft 118kts
03-Sep-18 14:34 34.612438 -118.034017 125 7539ft 116kts
03-Sep-18 14:35 34.592392 -118.003397 124 7539ft 115kts
03-Sep-18 14:36 34.572511 -117.972634 124 7540ft 115kts
03-Sep-18 14:37 34.552635 -117.941789 124 7541ft 116kts
03-Sep-18 14:38 34.532803 -117.911005 124 7541ft 116kts
03-Sep-18 14:39 34.512823 -117.880014 123 7541ft 117kts
03-Sep-18 14:40 34.492732 -117.848872 123 7541ft 118kts
03-Sep-18 14:41 34.472341 -117.817284 123 7543ft 119kts
03-Sep-18 14:42 34.452016 -117.785831 123 7545ft 120kts
03-Sep-18 14:43 34.432251 -117.753547 110 7548ft 118kts
03-Sep-18 14:44 34.419666 -117.717346 108 7550ft 117kts
03-Sep-18 14:45 34.406864 -117.679791 108 7453ft 119kts
03-Sep-18 14:46 34.394390 -117.643015 108 7455ft 117kts
03-Sep-18 14:47 34.372651 -117.613597 155 7449ft 123kts
03-Sep-18 14:48 34.340085 -117.600681 153 7441ft 124kts
03-Sep-18 14:49 34.315586 -117.574874 122 7432ft 121kts
03-Sep-18 14:50 34.296189 -117.544472 123 7424ft 122kts
03-Sep-18 14:51 34.275272 -117.512259 123 7416ft 123kts
03-Sep-18 14:52 34.255555 -117.481989 130 7252ft 110kts
03-Sep-18 14:53 34.236745 -117.453189 130 6750ft 110kts
03-Sep-18 14:54 34.221086 -117.429174 130 6334ft 111kts
03-Sep-18 14:55 34.206113 -117.406209 130 5940ft 112kts
03-Sep-18 14:56 34.187295 -117.377351 130 5441ft 108kts
03-Sep-18 14:56 34.171982 -117.353919 131 5022ft 107kts
03-Sep-18 14:57 34.153568 -117.325752 131 4519ft 108kts
03-Sep-18 14:59 34.131933 -117.292678 131 3935ft 109kts
03-Sep-18 15:00 34.118424 -117.261218 79 3327ft 105kts
03-Sep-18 15:00 34.124481 -117.235339 76 2736ft 92kts
03-Sep-18 15:01 34.131212 -117.205914 76 2040ft 91kts
03-Sep-18 15:02 34.121478 -117.187918 190 1524ft 61kts
03-Sep-18 15:04 34.108785 -117.199768 224 1418ft 50kts
03-Sep-18 15:04 34.102026 -117.211733 248 1393ft 52kts
03-Sep-18 15:05 34.097033 -117.228368 247 1134ft 48kts
03-Sep-18 15:06 34.096187 -117.236292 330 1113ft 0kts
03-Sep-18 15:07 34.096186 -117.236291 330 1113ft 0kts
03-Sep-18 15:08 34.096186 -117.236291 330 1113ft 0kts
03-Sep-18 15:09 34.096186 -117.236291 330 1113ft 0kts
03-Sep-18 15:10 34.096186 -117.236291 330 1113ft 0kts
03-Sep-18 15:11 34.097253 -117.234685 69 1120ft 17kts
03-Sep-18 15:12 34.100282 -117.226898 66 1139ft 22kts
03-Sep-18 15:13 34.101748 -117.224765 73 1146ft 0kts
03-Sep-18 15:14 34.101748 -117.224765 73 1146ft 0kts
03-Sep-18 15:15 34.101748 -117.224765 73 1146ft 0kts
03-Sep-18 15:16 34.101748 -117.224765 73 1146ft 0kts
03-Sep-18 15:17 34.101748 -117.224765 73 1146ft 0kts
03-Sep-18 15:18 34.101748 -117.224765 73 1146ft 0kts
03-Sep-18 15:19 34.101748 -117.224765 73 1146ft 0kts
03-Sep-18 15:20 34.101748 -117.224765 73 1146ft 0kts

Navigation Log

Ident Type
1. KMHV Airport
2. PMD Navaid
3. KSBD Airport